Time;durP1;ratioP1;P1;durP2;ratioP2;P2;SDS_P1;SDS_P2;PMS_P1;PMS_P2;Temp;Humidity;BMP_temperature;BMP_pressure;BME280_temperature;BME280_humidity;BME280_pressure;Samples;Min_cycle;Max_cycle;Signal;HPM_P1;HPM_P2
2022/07/01 00:01:22;;;;;;;41.35;26.88;;;18.00;99.90;;;;;;4972177;28;25099;-74
2022/07/01 00:03:50;;;;;;;37.17;26.83;;;18.50;99.90;;;;;;4971164;28;25064;-73
2022/07/01 00:06:17;;;;;;;39.00;26.85;;;18.40;99.90;;;;;;4971220;28;25131;-73
2022/07/01 00:08:43;;;;;;;40.33;25.75;;;18.20;99.90;;;;;;4973576;28;25071;-75
2022/07/01 00:11:09;;;;;;;43.90;26.25;;;18.30;99.90;;;;;;4972172;28;25077;-73
2022/07/01 00:13:35;;;;;;;37.55;24.95;;;18.30;99.90;;;;;;4977868;28;25069;-74
2022/07/01 00:16:00;;;;;;;45.22;26.80;;;18.30;99.90;;;;;;4981499;28;25066;-73
2022/07/01 00:18:26;;;;;;;40.35;26.92;;;18.10;99.90;;;;;;4975643;28;25070;-72
2022/07/01 00:20:52;;;;;;;38.83;26.02;;;17.90;99.90;;;;;;4974685;28;25146;-74
2022/07/01 00:23:18;;;;;;;37.65;26.73;;;17.80;99.90;;;;;;4975821;28;25142;-75
2022/07/01 00:25:45;;;;;;;34.90;25.23;;;17.80;99.90;;;;;;4976920;28;25114;-73
2022/07/01 00:28:10;;;;;;;39.40;26.40;;;17.80;99.90;;;;;;4978226;28;25086;-76
2022/07/01 00:30:36;;;;;;;42.20;25.50;;;17.80;99.90;;;;;;4982883;28;25065;-75
2022/07/01 00:33:02;;;;;;;39.53;26.27;;;17.80;99.90;;;;;;4972064;28;25045;-73
2022/07/01 00:35:28;;;;;;;38.88;25.92;;;18.00;99.90;;;;;;4974107;28;25117;-75
2022/07/01 00:37:53;;;;;;;38.30;27.20;;;17.80;99.90;;;;;;4970893;28;25123;-74
2022/07/01 00:40:19;;;;;;;47.78;26.85;;;17.80;99.90;;;;;;4981157;28;25135;-75
2022/07/01 00:42:45;;;;;;;40.67;25.80;;;17.90;99.90;;;;;;4981357;28;25064;-75
2022/07/01 00:45:11;;;;;;;40.05;25.90;;;18.10;99.90;;;;;;4975501;28;25082;-76
2022/07/01 00:47:39;;;;;;;36.95;24.13;;;18.00;99.90;;;;;;4977030;28;25147;-74
2022/07/01 00:50:09;;;;;;;37.38;24.23;;;17.90;99.90;;;;;;4980177;28;25081;-74
2022/07/01 00:52:35;;;;;;;39.40;25.02;;;18.30;99.90;;;;;;4978286;28;25106;-75
2022/07/01 00:55:07;;;;;;;31.48;19.98;;;18.30;99.90;;;;;;4972091;28;25107;-73
2022/07/01 00:57:36;;;;;;;40.40;24.00;;;18.10;99.90;;;;;;4975998;28;25112;-74
2022/07/01 01:00:13;;;;;;;38.97;24.77;;;18.40;99.90;;;;;;4976064;28;25064;-75
2022/07/01 01:02:39;;;;;;;38.17;23.48;;;18.10;99.90;;;;;;4990054;28;25074;-75
2022/07/01 01:05:07;;;;;;;36.55;21.92;;;18.40;99.90;;;;;;4971907;28;25064;-74
2022/07/01 01:07:33;;;;;;;36.38;21.67;;;18.40;99.90;;;;;;4977231;28;25167;-75
2022/07/01 01:10:01;;;;;;;39.88;23.58;;;18.10;99.90;;;;;;4965450;28;25097;-74
2022/07/01 01:12:27;;;;;;;46.33;23.38;;;18.60;99.90;;;;;;4968351;28;25059;-75
2022/07/01 01:14:53;;;;;;;34.58;21.55;;;18.40;99.90;;;;;;4971513;28;25078;-73
2022/07/01 01:17:21;;;;;;;39.55;22.63;;;18.40;99.90;;;;;;4977555;28;25111;-74
2022/07/01 01:19:48;;;;;;;39.10;23.48;;;18.10;99.90;;;;;;4977692;28;25067;-74
2022/07/01 01:22:15;;;;;;;39.95;23.70;;;17.90;99.90;;;;;;4968824;28;25120;-75
2022/07/01 01:24:42;;;;;;;31.30;19.90;;;17.90;99.90;;;;;;4967636;28;25161;-75
2022/07/01 01:27:08;;;;;;;39.58;24.05;;;18.00;99.90;;;;;;4978708;28;25055;-74
2022/07/01 01:29:36;;;;;;;42.78;24.35;;;18.00;99.90;;;;;;4978700;28;25133;-75
2022/07/01 01:32:03;;;;;;;48.58;25.88;;;18.40;99.90;;;;;;4977309;28;25107;-75
2022/07/01 01:34:28;;;;;;;46.53;24.88;;;18.20;99.90;;;;;;4971736;28;25068;-75
2022/07/01 01:36:54;;;;;;;35.47;22.02;;;18.30;99.90;;;;;;4979216;28;25152;-75
2022/07/01 01:39:20;;;;;;;40.00;21.77;;;18.00;99.90;;;;;;4980183;28;25172;-74
2022/07/01 01:41:46;;;;;;;44.42;23.80;;;18.00;99.90;;;;;;4977567;28;24965;-75
2022/07/01 01:44:12;;;;;;;39.25;21.83;;;18.00;99.90;;;;;;4978638;28;25072;-74
2022/07/01 01:46:38;;;;;;;34.83;23.33;;;18.20;99.90;;;;;;4989058;28;25084;-74
2022/07/01 01:49:04;;;;;;;33.33;21.85;;;18.30;99.90;;;;;;4986517;28;25066;-73
2022/07/01 01:51:30;;;;;;;33.22;21.38;;;17.90;99.90;;;;;;4982993;28;25119;-75
2022/07/01 01:53:57;;;;;;;38.15;23.70;;;18.10;99.90;;;;;;4999794;28;25060;-73
2022/07/01 01:56:23;;;;;;;32.85;21.58;;;18.10;99.90;;;;;;4985391;28;25069;-75
2022/07/01 01:58:49;;;;;;;37.45;23.17;;;18.10;99.90;;;;;;4979741;28;25061;-74
2022/07/01 02:01:16;;;;;;;40.45;23.20;;;18.30;99.90;;;;;;4979800;28;25069;-73
2022/07/01 02:03:43;;;;;;;33.58;20.58;;;18.00;99.90;;;;;;4973737;28;25146;-77
2022/07/01 02:06:09;;;;;;;37.17;23.75;;;17.90;99.90;;;;;;4977895;28;25120;-75
2022/07/01 02:08:36;;;;;;;40.90;24.23;;;18.20;99.90;;;;;;4976738;28;25055;-74
2022/07/01 02:11:02;;;;;;;38.58;23.45;;;18.20;99.90;;;;;;4971170;28;25076;-74
2022/07/01 02:13:28;;;;;;;40.35;23.33;;;17.90;99.90;;;;;;4971592;28;25120;-74
2022/07/01 02:15:54;;;;;;;36.83;24.05;;;18.30;99.90;;;;;;4989060;28;25079;-74
2022/07/01 02:18:20;;;;;;;42.28;26.13;;;18.10;99.90;;;;;;4971120;28;25128;-75
2022/07/01 02:20:46;;;;;;;42.13;26.45;;;17.70;99.90;;;;;;4974207;28;25074;-74
2022/07/01 02:23:11;;;;;;;42.78;24.25;;;18.10;99.90;;;;;;4974685;28;25085;-74
2022/07/01 02:25:37;;;;;;;34.78;22.17;;;17.90;99.90;;;;;;4972274;28;25120;-75
2022/07/01 02:28:03;;;;;;;41.90;25.20;;;17.80;99.90;;;;;;4993342;28;25122;-75
2022/07/01 02:30:30;;;;;;;40.40;24.20;;;17.90;99.90;;;;;;4992943;28;25104;-73
2022/07/01 02:32:56;;;;;;;42.50;25.48;;;18.30;99.90;;;;;;4976384;28;25114;-75
2022/07/01 02:35:22;;;;;;;43.35;24.90;;;17.90;99.90;;;;;;4977195;28;25096;-75
2022/07/01 02:37:48;;;;;;;37.90;24.65;;;18.10;99.90;;;;;;4986379;28;25057;-74
2022/07/01 02:40:14;;;;;;;41.78;25.05;;;18.30;99.90;;;;;;4990009;28;25066;-74
2022/07/01 02:42:40;;;;;;;44.20;26.08;;;18.00;99.90;;;;;;4986862;28;25093;-73
2022/07/01 02:45:08;;;;;;;39.28;24.65;;;18.20;99.90;;;;;;4969014;28;25155;-75
2022/07/01 02:47:37;;;;;;;39.50;24.27;;;17.90;99.90;;;;;;4962123;28;25150;-76
2022/07/01 02:50:04;;;;;;;38.90;23.60;;;18.20;99.90;;;;;;4965760;28;25082;-74
2022/07/01 02:52:30;;;;;;;39.85;24.20;;;18.00;99.90;;;;;;4963112;28;25085;-74
2022/07/01 02:54:56;;;;;;;42.40;23.33;;;18.20;99.90;;;;;;4963827;28;25060;-76
2022/07/01 02:57:22;;;;;;;43.60;24.50;;;18.20;99.90;;;;;;4963296;28;25080;-75
2022/07/01 02:59:48;;;;;;;41.42;24.98;;;18.30;99.90;;;;;;4965001;28;25064;-75
2022/07/01 03:02:13;;;;;;;45.17;24.13;;;18.40;99.90;;;;;;4966941;28;25134;-75
2022/07/01 03:04:39;;;;;;;46.33;24.58;;;18.10;99.90;;;;;;4973355;28;25068;-74
2022/07/01 03:07:05;;;;;;;42.45;23.85;;;18.30;99.90;;;;;;4973348;28;25159;-76
2022/07/01 03:09:30;;;;;;;40.65;23.48;;;18.20;99.90;;;;;;4965219;28;25060;-75
2022/07/01 03:11:56;;;;;;;43.60;22.35;;;18.20;99.90;;;;;;4967984;28;25075;-76
2022/07/01 03:14:21;;;;;;;37.28;22.75;;;17.90;99.90;;;;;;4972063;28;25074;-76
2022/07/01 03:16:47;;;;;;;39.47;22.15;;;17.90;99.90;;;;;;4976395;28;25062;-75
2022/07/01 03:19:13;;;;;;;41.45;23.65;;;18.30;99.90;;;;;;4970606;28;25071;-75
2022/07/01 03:21:40;;;;;;;42.13;24.95;;;18.30;99.90;;;;;;4977415;28;25080;-76
2022/07/01 03:24:06;;;;;;;37.45;20.45;;;17.90;99.90;;;;;;4977235;28;25065;-76
2022/07/01 03:26:31;;;;;;;43.38;23.50;;;17.80;99.90;;;;;;4984337;28;25053;-75
2022/07/01 03:28:57;;;;;;;48.17;24.65;;;17.70;99.90;;;;;;4996085;28;25071;-75
2022/07/01 03:31:23;;;;;;;38.58;22.50;;;18.00;99.90;;;;;;4990540;28;25071;-74
2022/07/01 03:33:49;;;;;;;44.33;24.30;;;17.90;99.90;;;;;;4980242;28;25083;-76
2022/07/01 03:36:15;;;;;;;33.30;20.10;;;17.90;99.90;;;;;;5000974;28;25112;-75
2022/07/01 03:38:42;;;;;;;45.17;24.80;;;17.70;99.90;;;;;;4981016;28;25099;-75
2022/07/01 03:41:07;;;;;;;44.95;23.00;;;18.00;99.90;;;;;;4983662;28;25085;-76
2022/07/01 03:43:33;;;;;;;40.00;21.98;;;17.70;99.90;;;;;;4984741;28;25063;-74
2022/07/01 03:45:59;;;;;;;31.10;18.35;;;18.00;99.90;;;;;;4988324;28;25101;-76
2022/07/01 03:48:25;;;;;;;38.53;23.65;;;17.80;99.90;;;;;;4997643;28;25093;-75
2022/07/01 03:50:51;;;;;;;35.83;21.40;;;17.60;99.90;;;;;;4987702;28;25075;-73
2022/07/01 03:56:01;;;;;;;40.58;22.92;;;17.60;99.90;;;;;;4977094;28;25050;-74
2022/07/01 03:58:27;;;;;;;35.08;19.75;;;17.50;99.90;;;;;;4976738;28;25067;-75
2022/07/01 04:00:52;;;;;;;36.63;21.35;;;17.50;99.90;;;;;;4976176;28;25062;-75
2022/07/01 04:03:18;;;;;;;35.97;20.75;;;17.40;99.90;;;;;;4974411;28;25059;-75
2022/07/01 04:05:43;;;;;;;36.88;21.40;;;17.40;99.90;;;;;;4971597;28;25171;-74
2022/07/01 04:08:10;;;;;;;37.33;21.13;;;17.50;99.90;;;;;;4982313;28;25056;-77
2022/07/01 04:10:38;;;;;;;35.05;20.80;;;17.30;99.90;;;;;;4969079;28;25049;-73
2022/07/01 04:13:04;;;;;;;30.83;19.27;;;17.80;99.90;;;;;;4975508;28;25074;-74
2022/07/01 04:15:30;;;;;;;32.13;18.83;;;17.40;99.90;;;;;;4978614;28;25059;-75
2022/07/01 04:17:56;;;;;;;32.67;19.38;;;17.40;99.90;;;;;;4980524;28;25057;-74
2022/07/01 04:20:21;;;;;;;27.77;16.45;;;17.40;99.90;;;;;;4966013;28;25067;-73
2022/07/01 04:22:47;;;;;;;29.85;18.48;;;17.60;99.90;;;;;;4969421;28;25078;-75
2022/07/01 04:25:13;;;;;;;40.08;19.83;;;17.30;99.90;;;;;;4970546;28;25107;-77
2022/07/01 04:27:38;;;;;;;29.33;18.38;;;17.50;99.90;;;;;;4971728;28;25060;-74
2022/07/01 04:30:04;;;;;;;33.60;17.20;;;17.50;99.90;;;;;;4970804;28;25093;-76
2022/07/01 04:32:30;;;;;;;29.05;17.33;;;17.40;99.90;;;;;;4967368;28;25108;-76
2022/07/01 04:34:56;;;;;;;27.48;15.75;;;17.60;99.90;;;;;;4967671;28;25059;-75
2022/07/01 04:37:22;;;;;;;32.40;18.45;;;17.40;99.90;;;;;;4977288;28;25113;-75
2022/07/01 04:39:48;;;;;;;27.52;16.27;;;17.60;99.90;;;;;;4982655;28;25126;-75
2022/07/01 04:42:15;;;;;;;29.75;15.98;;;17.60;99.90;;;;;;4974906;28;25100;-74
2022/07/01 04:44:40;;;;;;;29.98;16.77;;;17.40;99.90;;;;;;4982248;28;25143;-75
2022/07/01 04:47:06;;;;;;;31.60;16.50;;;17.40;99.90;;;;;;4987599;28;25070;-74
2022/07/01 04:49:32;;;;;;;26.40;16.33;;;17.50;99.90;;;;;;4982122;28;25100;-75
2022/07/01 04:51:59;;;;;;;27.30;15.82;;;17.70;99.90;;;;;;4993959;28;25135;-75
2022/07/01 04:54:27;;;;;;;26.35;16.63;;;17.40;99.90;;;;;;4967212;28;25059;-74
2022/07/01 04:56:53;;;;;;;28.58;15.85;;;17.80;99.90;;;;;;4970467;28;25081;-74
2022/07/01 04:59:19;;;;;;;25.02;15.77;;;17.80;99.90;;;;;;4972854;28;25091;-74
2022/07/01 05:01:48;;;;;;;30.52;16.70;;;18.00;99.90;;;;;;4972987;28;25130;-74
2022/07/01 05:04:15;;;;;;;30.38;15.73;;;17.90;99.90;;;;;;4971654;28;25066;-76
2022/07/01 05:06:41;;;;;;;20.90;13.57;;;17.80;99.90;;;;;;4989361;28;25092;-73
2022/07/01 05:09:07;;;;;;;23.13;14.63;;;17.80;99.90;;;;;;4992904;28;25068;-74
2022/07/01 05:11:32;;;;;;;23.48;14.70;;;17.70;99.90;;;;;;4983447;28;25160;-75
2022/07/01 05:13:58;;;;;;;28.23;15.15;;;18.00;99.90;;;;;;4979230;28;25086;-74
2022/07/01 05:16:23;;;;;;;26.85;14.80;;;18.00;99.90;;;;;;4970794;28;25067;-76
2022/07/01 05:24:18;;;;;;;22.70;14.13;;;18.10;99.90;;;;;;4969849;28;25047;-73
2022/07/01 05:26:43;;;;;;;25.23;14.02;;;17.90;99.90;;;;;;4971965;28;25137;-74
2022/07/01 05:29:09;;;;;;;19.17;13.82;;;18.10;99.90;;;;;;4969416;28;25091;-74
2022/07/01 05:31:35;;;;;;;29.55;13.77;;;17.80;99.90;;;;;;4974202;28;25099;-74
2022/07/01 05:34:00;;;;;;;27.58;13.93;;;18.00;99.90;;;;;;4976091;28;25064;-73
2022/07/01 05:36:26;;;;;;;18.58;12.27;;;18.10;99.90;;;;;;4988675;28;25076;-74
2022/07/01 05:38:52;;;;;;;24.95;12.32;;;18.00;99.90;;;;;;4988407;28;25091;-73
2022/07/01 05:41:18;;;;;;;17.05;12.85;;;17.80;99.90;;;;;;4986842;28;25104;-74
2022/07/01 05:43:44;;;;;;;23.08;12.13;;;17.90;99.90;;;;;;4987253;28;25058;-73
2022/07/01 05:46:09;;;;;;;23.67;14.00;;;17.80;99.90;;;;;;4982222;28;25145;-74
2022/07/01 05:48:35;;;;;;;22.50;11.75;;;18.00;99.90;;;;;;4983137;28;25061;-76
2022/07/01 05:51:01;;;;;;;23.55;12.07;;;18.00;99.90;;;;;;5000263;28;25099;-74
2022/07/01 05:53:26;;;;;;;27.27;12.20;;;18.00;99.90;;;;;;4974005;28;25124;-74
2022/07/01 05:55:52;;;;;;;24.40;11.77;;;17.90;99.90;;;;;;4998873;28;25067;-74
2022/07/01 05:58:17;;;;;;;23.92;12.43;;;18.00;99.90;;;;;;4976232;28;25066;-74
2022/07/01 06:00:43;;;;;;;22.17;11.93;;;17.90;99.90;;;;;;4979475;28;25123;-73
2022/07/01 06:03:11;;;;;;;19.58;11.43;;;17.80;99.90;;;;;;4967139;28;25075;-74
2022/07/01 06:05:37;;;;;;;19.75;10.88;;;18.00;99.90;;;;;;4976934;28;25058;-73
2022/07/01 06:08:03;;;;;;;20.08;10.70;;;17.90;99.90;;;;;;4979223;28;25078;-76
2022/07/01 06:10:29;;;;;;;16.52;10.02;;;17.80;99.90;;;;;;4977764;28;25079;-75
2022/07/01 06:12:55;;;;;;;19.48;10.73;;;17.80;99.90;;;;;;4971999;28;25140;-74
2022/07/01 06:15:20;;;;;;;17.55;9.25;;;17.70;99.90;;;;;;4970661;28;25077;-74
2022/07/01 06:17:46;;;;;;;15.73;9.23;;;17.60;99.90;;;;;;4973786;28;25116;-75
2022/07/01 06:20:12;;;;;;;15.73;8.27;;;17.70;99.90;;;;;;4973235;28;25123;-73
2022/07/01 06:22:37;;;;;;;18.13;9.32;;;18.00;99.90;;;;;;4969804;28;25075;-74
2022/07/01 06:25:04;;;;;;;20.10;8.75;;;17.90;99.90;;;;;;4977412;28;25069;-73
2022/07/01 06:27:30;;;;;;;14.15;8.77;;;18.10;99.90;;;;;;4976360;28;25115;-75
2022/07/01 06:29:55;;;;;;;22.63;8.50;;;18.10;99.90;;;;;;4983681;28;25080;-73
2022/07/01 06:32:21;;;;;;;16.95;7.93;;;17.90;99.90;;;;;;4989688;28;25079;-72
2022/07/01 06:34:48;;;;;;;15.05;6.93;;;17.60;99.90;;;;;;4976197;28;25066;-75
2022/07/01 06:37:13;;;;;;;15.85;7.65;;;17.70;99.90;;;;;;4980625;28;25126;-74
2022/07/01 06:39:39;;;;;;;21.92;7.82;;;17.80;99.90;;;;;;4979012;28;25072;-74
2022/07/01 06:42:05;;;;;;;14.93;6.45;;;18.00;99.90;;;;;;4969538;28;25168;-74
2022/07/01 06:44:31;;;;;;;15.43;6.72;;;17.80;99.90;;;;;;4962042;28;25139;-74
2022/07/01 06:46:57;;;;;;;14.60;6.78;;;17.50;99.90;;;;;;4973603;28;25164;-72
2022/07/01 06:49:22;;;;;;;17.80;6.57;;;17.10;99.90;;;;;;4978999;28;25050;-74
2022/07/01 06:51:48;;;;;;;13.88;6.45;;;17.20;99.90;;;;;;4973638;28;25137;-74
2022/07/01 06:54:14;;;;;;;14.85;6.30;;;17.30;99.90;;;;;;4968737;28;25067;-74
2022/07/01 06:56:39;;;;;;;11.68;6.18;;;17.20;99.90;;;;;;4972461;28;25116;-75
2022/07/01 06:59:05;;;;;;;13.75;6.07;;;17.50;99.90;;;;;;4960309;28;25066;-73
2022/07/01 07:01:31;;;;;;;16.05;6.07;;;17.60;99.90;;;;;;4970444;28;25078;-73
2022/07/01 07:03:56;;;;;;;13.77;5.68;;;17.50;99.90;;;;;;4966406;28;25086;-73
2022/07/01 07:06:22;;;;;;;10.40;5.35;;;17.80;99.90;;;;;;4967770;28;25161;-74
2022/07/01 07:08:48;;;;;;;14.23;5.05;;;17.70;99.90;;;;;;4976816;28;25132;-73
2022/07/01 07:11:14;;;;;;;15.13;5.40;;;17.70;99.90;;;;;;4969152;28;25081;-74
2022/07/01 07:13:41;;;;;;;14.23;5.45;;;17.60;99.90;;;;;;4980136;28;25075;-73
2022/07/01 07:16:07;;;;;;;13.75;5.10;;;17.70;99.90;;;;;;4975223;28;25068;-72
2022/07/01 07:18:33;;;;;;;12.82;4.40;;;17.80;99.90;;;;;;4972556;28;25127;-72
2022/07/01 07:20:59;;;;;;;15.23;4.80;;;17.40;99.90;;;;;;4974393;28;25077;-73
2022/07/01 07:23:24;;;;;;;11.02;4.15;;;17.40;99.90;;;;;;4985551;28;25149;-75
2022/07/01 07:25:50;;;;;;;14.93;4.10;;;17.90;99.90;;;;;;4976404;28;25059;-75
2022/07/01 07:28:16;;;;;;;11.93;3.83;;;18.30;99.90;;;;;;4980071;28;25388;-75
2022/07/01 07:30:41;;;;;;;12.02;3.95;;;18.50;99.90;;;;;;4988611;28;25082;-74
2022/07/01 07:33:07;;;;;;;12.00;3.50;;;18.50;99.90;;;;;;4991092;28;25072;-72
2022/07/01 07:35:32;;;;;;;12.43;3.38;;;18.60;99.90;;;;;;4971333;28;25075;-74
2022/07/01 07:37:58;;;;;;;10.55;3.17;;;18.30;99.90;;;;;;4971204;28;25107;-74
2022/07/01 07:40:24;;;;;;;7.72;3.03;;;18.60;99.90;;;;;;4973210;28;25138;-72
2022/07/01 07:42:49;;;;;;;9.55;3.22;;;18.40;99.90;;;;;;4982261;28;25101;-73
2022/07/01 07:45:16;;;;;;;8.82;3.20;;;18.30;99.90;;;;;;4987981;28;25078;-74
2022/07/01 07:47:46;;;;;;;11.90;2.75;;;18.30;99.90;;;;;;4983494;28;25060;-76
2022/07/01 07:50:12;;;;;;;10.32;3.28;;;18.40;99.90;;;;;;4974617;28;25082;-73
2022/07/01 07:52:38;;;;;;;9.50;2.95;;;18.70;99.90;;;;;;4965143;28;25130;-72
2022/07/01 07:55:06;;;;;;;11.63;2.83;;;18.70;99.90;;;;;;4977392;28;25115;-72
2022/07/01 07:57:32;;;;;;;12.73;3.28;;;19.00;99.90;;;;;;4979385;28;25121;-71
2022/07/01 07:59:58;;;;;;;8.65;2.72;;;19.00;99.90;;;;;;4970308;28;25067;-73
2022/07/01 08:02:23;;;;;;;9.98;3.08;;;19.00;99.90;;;;;;4970671;28;25106;-71
2022/07/01 08:04:49;;;;;;;9.70;3.08;;;19.30;99.90;;;;;;4979597;28;25050;-72
2022/07/01 08:07:14;;;;;;;8.50;2.70;;;19.20;99.90;;;;;;4954505;28;25085;-71
2022/07/01 08:09:45;;;;;;;9.15;3.03;;;19.20;99.90;;;;;;4968485;28;25070;-73
2022/07/01 08:12:11;;;;;;;9.88;2.60;;;19.20;99.90;;;;;;4974482;28;25076;-71
2022/07/01 08:14:37;;;;;;;7.82;2.60;;;19.30;99.90;;;;;;4973384;28;25125;-72
2022/07/01 08:17:03;;;;;;;8.45;2.17;;;18.80;99.90;;;;;;4972541;28;25154;-72
2022/07/01 08:19:29;;;;;;;10.93;3.13;;;19.20;99.90;;;;;;4972691;28;25076;-71
2022/07/01 08:21:55;;;;;;;7.20;2.38;;;19.40;99.90;;;;;;4972880;28;25079;-70
2022/07/01 08:24:21;;;;;;;7.38;2.35;;;19.80;99.90;;;;;;4979684;28;25056;-73
2022/07/01 08:26:47;;;;;;;10.07;2.53;;;19.90;99.90;;;;;;4982456;28;25071;-70
2022/07/01 08:29:13;;;;;;;8.07;2.20;;;20.00;99.90;;;;;;4985434;28;25112;-71
2022/07/01 08:31:38;;;;;;;9.43;1.67;;;20.20;99.90;;;;;;4986033;28;25124;-71
2022/07/01 08:34:04;;;;;;;8.82;1.90;;;20.00;99.90;;;;;;4975811;28;25061;-71
2022/07/01 08:36:30;;;;;;;2.22;1.35;;;19.70;99.90;;;;;;4985445;28;25134;-71
2022/07/01 08:38:55;;;;;;;15.75;2.40;;;19.60;99.90;;;;;;4979208;28;25056;-71
2022/07/01 08:41:21;;;;;;;5.97;1.80;;;19.60;99.90;;;;;;4987699;28;25153;-72
2022/07/01 08:43:47;;;;;;;4.70;1.80;;;19.90;99.90;;;;;;4996155;28;25116;-72
2022/07/01 08:46:12;;;;;;;7.82;1.92;;;20.20;99.90;;;;;;4978788;28;25072;-72
2022/07/01 08:48:43;;;;;;;7.60;1.92;;;20.20;99.90;;;;;;4969778;28;25070;-71
2022/07/01 08:51:09;;;;;;;6.60;1.92;;;20.10;99.90;;;;;;4965226;28;25054;-71
2022/07/01 08:53:35;;;;;;;10.90;2.28;;;19.90;99.90;;;;;;4972795;28;25059;-74
2022/07/01 08:58:47;;;;;;;10.43;1.30;;;20.10;99.90;;;;;;4976040;28;25080;-72
2022/07/01 09:01:22;;;;;;;7.00;1.50;;;20.00;99.90;;;;;;4957191;28;25098;-71
2022/07/01 09:03:50;;;;;;;8.15;2.17;;;20.20;99.90;;;;;;4978345;28;24874;-72
2022/07/01 09:06:18;;;;;;;8.07;1.88;;;20.10;99.90;;;;;;4980018;28;25079;-70
2022/07/01 09:08:46;;;;;;;8.68;1.75;;;20.70;99.90;;;;;;4970392;28;25120;-71
2022/07/01 09:11:17;;;;;;;4.25;1.30;;;20.80;99.90;;;;;;4968607;28;25076;-71
2022/07/01 09:13:44;;;;;;;8.50;1.60;;;20.60;99.90;;;;;;4982346;28;25056;-70
2022/07/01 09:16:14;;;;;;;4.82;1.50;;;20.70;99.90;;;;;;4973628;28;25108;-72
2022/07/01 09:18:40;;;;;;;9.02;1.30;;;20.60;99.90;;;;;;4994924;28;25154;-72
2022/07/01 09:21:13;;;;;;;6.57;1.30;;;20.70;99.90;;;;;;4976034;28;25073;-71
2022/07/01 09:23:39;;;;;;;7.75;1.40;;;20.50;99.90;;;;;;4980454;28;25068;-71
2022/07/01 09:26:05;;;;;;;3.85;1.40;;;20.70;99.90;;;;;;4948751;28;25061;-72
2022/07/01 09:28:30;;;;;;;7.97;1.50;;;20.80;99.90;;;;;;4965672;28;25059;-73
2022/07/01 09:30:57;;;;;;;5.13;1.30;;;20.90;99.90;;;;;;4981633;28;24926;-71
2022/07/01 09:33:28;;;;;;;4.80;1.20;;;20.60;99.90;;;;;;4975227;28;25126;-72
2022/07/01 09:35:56;;;;;;;4.30;1.50;;;20.70;99.90;;;;;;4978764;28;25116;-72
2022/07/01 09:38:26;;;;;;;8.63;1.70;;;21.00;99.90;;;;;;4979118;28;25073;-73
2022/07/01 09:41:03;;;;;;;6.10;1.10;;;20.80;99.90;;;;;;4973296;28;25170;-72
2022/07/01 09:43:31;;;;;;;6.10;1.50;;;20.50;99.90;;;;;;4985050;28;25100;-74
2022/07/01 09:46:05;;;;;;;5.85;1.30;;;20.30;99.90;;;;;;4981371;28;25107;-72
2022/07/01 09:48:34;;;;;;;5.47;1.65;;;20.40;99.90;;;;;;4986272;28;25090;-74
2022/07/01 09:51:03;;;;;;;5.32;1.20;;;20.70;99.90;;;;;;5003067;28;25066;-73
2022/07/01 09:53:29;;;;;;;5.13;1.55;;;20.60;99.90;;;;;;4997784;28;25091;-75
2022/07/01 09:55:55;;;;;;;9.45;1.67;;;19.60;99.90;;;;;;4996304;28;25063;-75
2022/07/01 09:58:20;;;;;;;6.03;1.60;;;19.30;99.90;;;;;;4983696;28;25060;-71
2022/07/01 10:00:47;;;;;;;4.50;1.10;;;19.90;99.90;;;;;;4983437;28;25128;-73
2022/07/01 10:03:13;;;;;;;2.35;0.95;;;20.20;99.90;;;;;;4981120;28;25068;-73
2022/07/01 10:05:42;;;;;;;5.88;1.27;;;20.20;99.90;;;;;;4971146;28;25055;-71
2022/07/01 10:08:33;;;;;;;9.82;1.67;;;20.30;99.90;;;;;;4972439;28;25148;-70
2022/07/01 10:11:17;;;;;;;4.28;1.10;;;20.00;99.90;;;;;;4972749;28;25057;-71
2022/07/01 10:13:44;;;;;;;2.72;1.05;;;20.50;99.90;;;;;;4977360;28;25061;-71
2022/07/01 10:16:11;;;;;;;6.25;1.10;;;20.80;99.90;;;;;;4985851;28;25051;-72
2022/07/01 10:18:36;;;;;;;7.40;1.33;;;21.30;99.90;;;;;;4982043;28;25109;-70
2022/07/01 10:21:04;;;;;;;4.30;1.17;;;21.30;99.90;;;;;;4981658;28;25106;-70
2022/07/01 10:23:43;;;;;;;6.32;1.20;;;21.30;99.90;;;;;;4979003;28;25151;-72
2022/07/01 10:26:11;;;;;;;4.53;1.38;;;21.30;99.90;;;;;;4971940;28;25163;-73
2022/07/01 10:28:43;;;;;;;4.85;1.88;;;21.60;99.90;;;;;;4970779;28;25140;-71
2022/07/01 10:31:15;;;;;;;4.28;1.20;;;21.80;99.90;;;;;;4967228;28;25077;-72
2022/07/01 10:33:53;;;;;;;5.18;1.58;;;21.40;99.70;;;;;;4972863;28;25106;-70
2022/07/01 10:36:21;;;;;;;5.22;1.10;;;21.90;99.60;;;;;;4968530;28;25081;-73
2022/07/01 10:41:33;;;;;;;3.03;1.33;;;21.70;99.90;;;;;;4978858;28;25150;-71
2022/07/01 10:44:03;;;;;;;5.65;1.45;;;21.60;99.90;;;;;;4964227;28;25062;-72
2022/07/01 10:46:49;;;;;;;5.05;1.20;;;21.90;99.90;;;;;;4971384;28;25126;-72
2022/07/01 10:49:20;;;;;;;3.20;1.38;;;22.10;98.90;;;;;;4980176;28;25112;-72
2022/07/01 10:51:52;;;;;;;5.28;1.20;;;21.90;95.40;;;;;;4975302;28;25092;-71
2022/07/01 10:54:36;;;;;;;8.18;1.50;;;21.90;95.90;;;;;;4979659;28;25068;-72
2022/07/01 10:57:20;;;;;;;5.05;1.15;;;22.10;92.50;;;;;;4976680;28;25113;-72
2022/07/01 10:59:50;;;;;;;3.03;0.80;;;21.30;92.40;;;;;;4976480;28;25077;-71
2022/07/01 11:02:22;;;;;;;6.95;1.40;;;21.80;94.70;;;;;;4982182;28;25067;-71
2022/07/01 11:04:49;;;;;;;5.93;1.38;;;22.10;96.30;;;;;;4970345;28;25156;-72
2022/07/01 11:07:15;;;;;;;3.45;1.00;;;22.20;92.10;;;;;;4979508;28;25097;-71
2022/07/01 11:09:41;;;;;;;4.13;0.90;;;22.40;91.70;;;;;;4966359;28;25155;-70
2022/07/01 11:12:07;;;;;;;6.38;0.90;;;22.10;86.60;;;;;;4967402;28;25062;-73
2022/07/01 11:14:35;;;;;;;3.08;0.95;;;21.80;90.40;;;;;;4976856;28;25055;-69
2022/07/01 11:17:02;;;;;;;7.50;1.25;;;22.20;91.50;;;;;;4984104;28;25112;-72
2022/07/01 11:19:27;;;;;;;9.70;1.55;;;22.20;92.30;;;;;;4975832;28;25102;-71
2022/07/01 11:21:54;;;;;;;4.78;1.40;;;22.40;93.10;;;;;;4989160;28;25116;-72
2022/07/01 11:24:21;;;;;;;3.40;1.27;;;21.70;88.80;;;;;;4973056;28;25070;-70
2022/07/01 11:26:47;;;;;;;8.30;1.27;;;21.90;94.40;;;;;;4981258;28;25063;-72
2022/07/01 11:29:14;;;;;;;4.57;1.00;;;21.80;92.80;;;;;;4978097;28;25074;-72
2022/07/01 11:31:40;;;;;;;5.38;1.45;;;22.20;93.80;;;;;;4976961;28;25060;-72
2022/07/01 11:34:08;;;;;;;3.80;1.15;;;22.30;90.60;;;;;;4976377;28;25073;-71
2022/07/01 11:39:22;;;;;;;4.63;1.00;;;22.70;86.20;;;;;;4966659;28;25100;-71
2022/07/01 11:41:55;;;;;;;6.40;1.20;;;22.00;83.00;;;;;;4966058;28;25137;-71
2022/07/01 11:44:44;;;;;;;6.25;1.60;;;21.60;85.80;;;;;;4977017;28;25060;-71
2022/07/01 11:47:12;;;;;;;5.18;1.10;;;21.40;93.00;;;;;;4970030;28;25041;-73
2022/07/01 11:49:46;;;;;;;5.05;1.33;;;21.30;93.50;;;;;;4979818;28;25061;-72
2022/07/01 11:52:12;;;;;;;5.00;1.00;;;21.10;94.60;;;;;;4978931;28;25133;-71
2022/07/01 11:54:39;;;;;;;4.13;1.27;;;20.60;95.00;;;;;;4980952;28;25068;-70
2022/07/01 11:57:19;;;;;;;5.30;1.45;;;20.60;96.60;;;;;;4979180;28;25144;-71
2022/07/01 11:59:47;;;;;;;4.28;1.50;;;20.50;98.10;;;;;;4977711;28;25068;-73
2022/07/01 12:02:15;;;;;;;7.78;2.03;;;20.30;99.90;;;;;;4983148;28;25088;-70
2022/07/01 12:04:41;;;;;;;13.45;1.95;;;20.00;99.90;;;;;;4973117;28;25053;-71
2022/07/01 12:07:08;;;;;;;9.32;2.00;;;19.70;99.90;;;;;;4983245;28;25055;-72
2022/07/01 12:09:35;;;;;;;5.38;1.73;;;19.50;99.90;;;;;;4994840;28;25077;-71
2022/07/01 12:12:01;;;;;;;4.53;1.50;;;19.50;99.90;;;;;;4978634;28;25080;-73
2022/07/01 12:14:30;;;;;;;4.35;1.70;;;19.30;99.90;;;;;;4976268;28;25103;-74
2022/07/01 12:17:02;;;;;;;6.70;2.03;;;19.10;99.90;;;;;;4971015;28;25115;-73
2022/07/01 12:19:29;;;;;;;4.73;1.70;;;19.30;99.90;;;;;;4969202;28;25140;-71
2022/07/01 12:21:58;;;;;;;10.52;1.67;;;19.30;99.90;;;;;;4975797;28;25096;-71
2022/07/01 12:24:24;;;;;;;8.23;1.95;;;19.50;99.90;;;;;;4978195;28;25062;-73
2022/07/01 12:26:49;;;;;;;3.42;1.25;;;19.60;99.90;;;;;;4980234;28;25129;-72
2022/07/01 12:29:23;;;;;;;3.10;1.20;;;19.70;99.90;;;;;;4978594;28;25057;-71
2022/07/01 12:32:03;;;;;;;6.70;1.35;;;19.80;99.90;;;;;;4983063;28;25101;-71
2022/07/01 12:34:49;;;;;;;3.10;1.20;;;20.00;99.90;;;;;;4986001;28;25065;-74
2022/07/01 12:37:20;;;;;;;4.22;1.02;;;20.00;99.90;;;;;;4978137;28;25068;-70
2022/07/01 12:39:51;;;;;;;7.30;1.30;;;20.10;99.90;;;;;;4984650;28;25152;-73
2022/07/01 12:42:30;;;;;;;4.20;1.03;;;20.20;99.90;;;;;;4980608;28;25061;-71
2022/07/01 12:44:59;;;;;;;2.78;1.15;;;20.30;99.90;;;;;;4975018;28;25078;-72
2022/07/01 12:47:29;;;;;;;5.38;1.40;;;19.90;99.90;;;;;;4977373;28;25122;-72
2022/07/01 12:50:23;;;;;;;6.00;1.33;;;19.50;99.90;;;;;;4974575;28;25097;-74
2022/07/01 12:53:02;;;;;;;6.72;1.33;;;19.20;99.90;;;;;;4983328;28;25098;-74